sensor_id;sensor_type;location;lat;lon;timestamp;temperature;humidity
6355;DHT22;3210;48.708;9.030;2022-07-12T00:00:47;14.30;99.90
6355;DHT22;3210;48.708;9.030;2022-07-12T00:03:14;14.60;99.90
6355;DHT22;3210;48.708;9.030;2022-07-12T00:05:42;14.60;99.90
6355;DHT22;3210;48.708;9.030;2022-07-12T00:08:09;14.80;99.90
6355;DHT22;3210;48.708;9.030;2022-07-12T00:10:36;14.70;99.90
6355;DHT22;3210;48.708;9.030;2022-07-12T00:13:03;14.60;99.90
6355;DHT22;3210;48.708;9.030;2022-07-12T00:15:30;14.30;99.90
6355;DHT22;3210;48.708;9.030;2022-07-12T00:17:57;14.00;99.90
6355;DHT22;3210;48.708;9.030;2022-07-12T00:20:24;14.10;99.90
6355;DHT22;3210;48.708;9.030;2022-07-12T00:22:52;14.10;99.90
6355;DHT22;3210;48.708;9.030;2022-07-12T00:25:19;14.00;99.90
6355;DHT22;3210;48.708;9.030;2022-07-12T00:27:46;14.00;99.90
6355;DHT22;3210;48.708;9.030;2022-07-12T00:30:12;13.90;99.90
6355;DHT22;3210;48.708;9.030;2022-07-12T00:32:39;13.80;99.90
6355;DHT22;3210;48.708;9.030;2022-07-12T00:35:07;13.80;99.90
6355;DHT22;3210;48.708;9.030;2022-07-12T00:37:33;13.90;99.90
6355;DHT22;3210;48.708;9.030;2022-07-12T00:40:04;13.90;99.90
6355;DHT22;3210;48.708;9.030;2022-07-12T00:42:31;13.80;99.90
6355;DHT22;3210;48.708;9.030;2022-07-12T00:44:58;13.90;99.90
6355;DHT22;3210;48.708;9.030;2022-07-12T00:47:32;13.90;99.90
6355;DHT22;3210;48.708;9.030;2022-07-12T00:50:04;13.90;99.90
6355;DHT22;3210;48.708;9.030;2022-07-12T00:52:31;13.80;99.90
6355;DHT22;3210;48.708;9.030;2022-07-12T00:54:57;13.80;99.90
6355;DHT22;3210;48.708;9.030;2022-07-12T00:57:26;13.80;99.90
6355;DHT22;3210;48.708;9.030;2022-07-12T00:59:53;13.80;99.90
6355;DHT22;3210;48.708;9.030;2022-07-12T01:02:19;13.80;99.90
6355;DHT22;3210;48.708;9.030;2022-07-12T01:04:46;13.80;99.90
6355;DHT22;3210;48.708;9.030;2022-07-12T01:07:13;14.00;99.90
6355;DHT22;3210;48.708;9.030;2022-07-12T01:09:41;14.00;99.90
6355;DHT22;3210;48.708;9.030;2022-07-12T01:12:09;14.10;99.90
6355;DHT22;3210;48.708;9.030;2022-07-12T01:14:37;14.10;99.90
6355;DHT22;3210;48.708;9.030;2022-07-12T01:17:06;14.10;99.90
6355;DHT22;3210;48.708;9.030;2022-07-12T01:19:33;14.10;99.90
6355;DHT22;3210;48.708;9.030;2022-07-12T01:22:02;14.10;99.90
6355;DHT22;3210;48.708;9.030;2022-07-12T01:24:30;14.10;99.90
6355;DHT22;3210;48.708;9.030;2022-07-12T01:26:57;14.00;99.90
6355;DHT22;3210;48.708;9.030;2022-07-12T01:29:25;13.90;99.90
6355;DHT22;3210;48.708;9.030;2022-07-12T01:31:52;13.80;99.90
6355;DHT22;3210;48.708;9.030;2022-07-12T01:34:20;13.80;99.90
6355;DHT22;3210;48.708;9.030;2022-07-12T01:36:47;13.70;99.90
6355;DHT22;3210;48.708;9.030;2022-07-12T01:39:14;13.60;99.90
6355;DHT22;3210;48.708;9.030;2022-07-12T01:41:43;13.60;99.90
6355;DHT22;3210;48.708;9.030;2022-07-12T01:44:10;13.40;99.90
6355;DHT22;3210;48.708;9.030;2022-07-12T01:46:38;13.30;99.90
6355;DHT22;3210;48.708;9.030;2022-07-12T01:49:04;13.40;99.90
6355;DHT22;3210;48.708;9.030;2022-07-12T01:51:31;13.40;99.90
6355;DHT22;3210;48.708;9.030;2022-07-12T01:53:58;13.50;99.90
6355;DHT22;3210;48.708;9.030;2022-07-12T01:56:25;13.50;99.90
6355;DHT22;3210;48.708;9.030;2022-07-12T01:58:53;13.50;99.90
6355;DHT22;3210;48.708;9.030;2022-07-12T02:01:20;13.40;99.90
6355;DHT22;3210;48.708;9.030;2022-07-12T02:03:47;13.40;99.90
6355;DHT22;3210;48.708;9.030;2022-07-12T02:06:14;13.40;99.90
6355;DHT22;3210;48.708;9.030;2022-07-12T02:08:41;13.40;99.90
6355;DHT22;3210;48.708;9.030;2022-07-12T02:11:09;13.50;99.90
6355;DHT22;3210;48.708;9.030;2022-07-12T02:13:35;13.40;99.90
6355;DHT22;3210;48.708;9.030;2022-07-12T02:16:04;13.40;99.90
6355;DHT22;3210;48.708;9.030;2022-07-12T02:18:32;13.60;99.90
6355;DHT22;3210;48.708;9.030;2022-07-12T02:20:59;13.70;99.90
6355;DHT22;3210;48.708;9.030;2022-07-12T02:23:27;13.70;99.90
6355;DHT22;3210;48.708;9.030;2022-07-12T02:25:54;13.70;99.90
6355;DHT22;3210;48.708;9.030;2022-07-12T02:28:20;13.70;99.90
6355;DHT22;3210;48.708;9.030;2022-07-12T02:30:47;13.80;99.90
6355;DHT22;3210;48.708;9.030;2022-07-12T02:33:15;13.60;99.90
6355;DHT22;3210;48.708;9.030;2022-07-12T02:35:42;13.40;99.90
6355;DHT22;3210;48.708;9.030;2022-07-12T02:38:09;13.20;99.90
6355;DHT22;3210;48.708;9.030;2022-07-12T02:40:36;13.20;99.90
6355;DHT22;3210;48.708;9.030;2022-07-12T02:43:23;13.10;99.90
6355;DHT22;3210;48.708;9.030;2022-07-12T02:45:51;13.10;99.90
6355;DHT22;3210;48.708;9.030;2022-07-12T02:48:19;13.20;99.90
6355;DHT22;3210;48.708;9.030;2022-07-12T02:50:46;13.20;99.90
6355;DHT22;3210;48.708;9.030;2022-07-12T02:53:13;13.20;99.90
6355;DHT22;3210;48.708;9.030;2022-07-12T02:55:41;13.20;99.90
6355;DHT22;3210;48.708;9.030;2022-07-12T02:58:08;13.20;99.90
6355;DHT22;3210;48.708;9.030;2022-07-12T03:00:35;13.20;99.90
6355;DHT22;3210;48.708;9.030;2022-07-12T03:03:02;13.20;99.90
6355;DHT22;3210;48.708;9.030;2022-07-12T03:05:30;13.20;99.90
6355;DHT22;3210;48.708;9.030;2022-07-12T03:07:57;13.10;99.90
6355;DHT22;3210;48.708;9.030;2022-07-12T03:10:24;13.10;99.90
6355;DHT22;3210;48.708;9.030;2022-07-12T03:12:50;13.10;99.90
6355;DHT22;3210;48.708;9.030;2022-07-12T03:15:17;13.20;99.90
6355;DHT22;3210;48.708;9.030;2022-07-12T03:17:44;13.20;99.90
6355;DHT22;3210;48.708;9.030;2022-07-12T03:20:11;13.10;99.90
6355;DHT22;3210;48.708;9.030;2022-07-12T03:22:41;13.00;99.90
6355;DHT22;3210;48.708;9.030;2022-07-12T03:25:09;13.00;99.90
6355;DHT22;3210;48.708;9.030;2022-07-12T03:27:36;13.10;99.90
6355;DHT22;3210;48.708;9.030;2022-07-12T03:30:04;13.20;99.90
6355;DHT22;3210;48.708;9.030;2022-07-12T03:32:31;13.20;99.90
6355;DHT22;3210;48.708;9.030;2022-07-12T03:34:58;13.20;99.90
6355;DHT22;3210;48.708;9.030;2022-07-12T03:37:24;13.10;99.90
6355;DHT22;3210;48.708;9.030;2022-07-12T03:39:52;13.20;99.90
6355;DHT22;3210;48.708;9.030;2022-07-12T03:42:19;13.20;99.90
6355;DHT22;3210;48.708;9.030;2022-07-12T03:44:46;13.30;99.90
6355;DHT22;3210;48.708;9.030;2022-07-12T03:47:13;13.30;99.90
6355;DHT22;3210;48.708;9.030;2022-07-12T03:49:40;13.10;99.90
6355;DHT22;3210;48.708;9.030;2022-07-12T03:52:07;13.10;99.90
6355;DHT22;3210;48.708;9.030;2022-07-12T03:54:34;13.20;99.90
6355;DHT22;3210;48.708;9.030;2022-07-12T03:57:02;13.10;99.90
6355;DHT22;3210;48.708;9.030;2022-07-12T03:59:41;13.10;99.90
6355;DHT22;3210;48.708;9.030;2022-07-12T04:02:09;13.10;99.90
6355;DHT22;3210;48.708;9.030;2022-07-12T04:04:35;13.10;99.90
6355;DHT22;3210;48.708;9.030;2022-07-12T04:07:03;13.10;99.90
6355;DHT22;3210;48.708;9.030;2022-07-12T04:09:30;13.10;99.90
6355;DHT22;3210;48.708;9.030;2022-07-12T04:11:57;13.10;99.90
6355;DHT22;3210;48.708;9.030;2022-07-12T04:14:25;13.10;99.90
6355;DHT22;3210;48.708;9.030;2022-07-12T04:16:53;13.00;99.90
6355;DHT22;3210;48.708;9.030;2022-07-12T04:19:20;13.10;99.90
6355;DHT22;3210;48.708;9.030;2022-07-12T04:21:49;13.10;99.90
6355;DHT22;3210;48.708;9.030;2022-07-12T04:24:16;13.20;99.90
6355;DHT22;3210;48.708;9.030;2022-07-12T04:26:43;13.20;99.90
6355;DHT22;3210;48.708;9.030;2022-07-12T04:29:10;13.20;99.90
6355;DHT22;3210;48.708;9.030;2022-07-12T04:31:38;13.40;99.90
6355;DHT22;3210;48.708;9.030;2022-07-12T04:34:04;13.50;99.90
6355;DHT22;3210;48.708;9.030;2022-07-12T04:36:31;13.50;99.90
6355;DHT22;3210;48.708;9.030;2022-07-12T04:38:58;13.50;99.90
6355;DHT22;3210;48.708;9.030;2022-07-12T04:41:25;13.40;99.90
6355;DHT22;3210;48.708;9.030;2022-07-12T04:43:52;13.40;99.90
6355;DHT22;3210;48.708;9.030;2022-07-12T04:46:18;13.50;99.90
6355;DHT22;3210;48.708;9.030;2022-07-12T04:48:46;13.50;99.90
6355;DHT22;3210;48.708;9.030;2022-07-12T04:51:13;13.70;99.90
6355;DHT22;3210;48.708;9.030;2022-07-12T04:53:42;13.90;99.90
6355;DHT22;3210;48.708;9.030;2022-07-12T04:56:08;13.90;99.90
6355;DHT22;3210;48.708;9.030;2022-07-12T04:58:35;14.00;99.90
6355;DHT22;3210;48.708;9.030;2022-07-12T05:01:02;14.00;99.90
6355;DHT22;3210;48.708;9.030;2022-07-12T05:03:29;14.00;99.90
6355;DHT22;3210;48.708;9.030;2022-07-12T05:05:57;14.10;99.90
6355;DHT22;3210;48.708;9.030;2022-07-12T05:08:24;14.10;99.90
6355;DHT22;3210;48.708;9.030;2022-07-12T05:10:51;14.10;99.90
6355;DHT22;3210;48.708;9.030;2022-07-12T05:13:18;14.40;99.90
6355;DHT22;3210;48.708;9.030;2022-07-12T05:15:45;14.50;99.90
6355;DHT22;3210;48.708;9.030;2022-07-12T05:18:11;14.70;99.90
6355;DHT22;3210;48.708;9.030;2022-07-12T05:20:38;14.80;99.90
6355;DHT22;3210;48.708;9.030;2022-07-12T05:23:06;14.80;99.90
6355;DHT22;3210;48.708;9.030;2022-07-12T05:25:33;14.90;99.90
6355;DHT22;3210;48.708;9.030;2022-07-12T05:28:00;15.10;99.90
6355;DHT22;3210;48.708;9.030;2022-07-12T05:30:27;15.20;99.90
6355;DHT22;3210;48.708;9.030;2022-07-12T05:32:53;15.30;99.90
6355;DHT22;3210;48.708;9.030;2022-07-12T05:35:20;15.30;99.90
6355;DHT22;3210;48.708;9.030;2022-07-12T05:37:47;15.50;99.90
6355;DHT22;3210;48.708;9.030;2022-07-12T05:40:15;15.50;99.90
6355;DHT22;3210;48.708;9.030;2022-07-12T05:42:42;15.60;99.90
6355;DHT22;3210;48.708;9.030;2022-07-12T05:45:09;15.70;99.90
6355;DHT22;3210;48.708;9.030;2022-07-12T05:47:36;15.90;99.90
6355;DHT22;3210;48.708;9.030;2022-07-12T05:50:04;16.10;99.90
6355;DHT22;3210;48.708;9.030;2022-07-12T05:52:31;16.20;99.90
6355;DHT22;3210;48.708;9.030;2022-07-12T05:55:17;16.30;99.90
6355;DHT22;3210;48.708;9.030;2022-07-12T05:57:44;16.50;99.90
6355;DHT22;3210;48.708;9.030;2022-07-12T06:00:11;16.60;99.90
6355;DHT22;3210;48.708;9.030;2022-07-12T06:02:39;16.70;99.90
6355;DHT22;3210;48.708;9.030;2022-07-12T06:05:06;16.80;99.90
6355;DHT22;3210;48.708;9.030;2022-07-12T06:07:34;17.00;99.90
6355;DHT22;3210;48.708;9.030;2022-07-12T06:10:01;17.20;99.90
6355;DHT22;3210;48.708;9.030;2022-07-12T06:12:29;17.40;99.90
6355;DHT22;3210;48.708;9.030;2022-07-12T06:14:56;17.60;99.90
6355;DHT22;3210;48.708;9.030;2022-07-12T06:17:23;17.70;99.90
6355;DHT22;3210;48.708;9.030;2022-07-12T06:19:50;17.90;99.90
6355;DHT22;3210;48.708;9.030;2022-07-12T06:22:16;18.20;99.90
6355;DHT22;3210;48.708;9.030;2022-07-12T06:24:43;18.30;78.90
6355;DHT22;3210;48.708;9.030;2022-07-12T06:27:10;18.10;99.90
6355;DHT22;3210;48.708;9.030;2022-07-12T06:29:38;18.10;1.00
6355;DHT22;3210;48.708;9.030;2022-07-12T06:32:06;18.30;91.00
6355;DHT22;3210;48.708;9.030;2022-07-12T06:34:36;18.40;1.00
6355;DHT22;3210;48.708;9.030;2022-07-12T06:37:03;18.60;1.00
6355;DHT22;3210;48.708;9.030;2022-07-12T06:39:33;18.60;1.00
6355;DHT22;3210;48.708;9.030;2022-07-12T06:41:59;18.70;1.00
6355;DHT22;3210;48.708;9.030;2022-07-12T06:44:29;18.60;1.00
6355;DHT22;3210;48.708;9.030;2022-07-12T06:46:58;18.70;1.00
6355;DHT22;3210;48.708;9.030;2022-07-12T06:49:25;18.70;1.00
6355;DHT22;3210;48.708;9.030;2022-07-12T06:51:52;18.90;1.00
6355;DHT22;3210;48.708;9.030;2022-07-12T06:54:19;19.00;1.00
6355;DHT22;3210;48.708;9.030;2022-07-12T06:56:46;19.30;1.00
6355;DHT22;3210;48.708;9.030;2022-07-12T06:59:12;19.30;1.00
6355;DHT22;3210;48.708;9.030;2022-07-12T07:01:39;19.50;1.00
6355;DHT22;3210;48.708;9.030;2022-07-12T07:04:08;19.50;1.00
6355;DHT22;3210;48.708;9.030;2022-07-12T07:06:34;19.50;1.00
6355;DHT22;3210;48.708;9.030;2022-07-12T07:09:01;19.70;99.90
6355;DHT22;3210;48.708;9.030;2022-07-12T07:11:32;19.60;99.90
6355;DHT22;3210;48.708;9.030;2022-07-12T07:13:59;19.50;99.90
6355;DHT22;3210;48.708;9.030;2022-07-12T07:16:26;19.30;99.90
6355;DHT22;3210;48.708;9.030;2022-07-12T07:18:53;19.20;99.90
6355;DHT22;3210;48.708;9.030;2022-07-12T07:21:21;19.20;1.00
6355;DHT22;3210;48.708;9.030;2022-07-12T07:23:48;19.10;1.00
6355;DHT22;3210;48.708;9.030;2022-07-12T07:26:14;19.50;1.00
6355;DHT22;3210;48.708;9.030;2022-07-12T07:28:41;19.70;99.90
6355;DHT22;3210;48.708;9.030;2022-07-12T07:31:22;19.90;99.90
6355;DHT22;3210;48.708;9.030;2022-07-12T07:33:49;20.10;99.90
6355;DHT22;3210;48.708;9.030;2022-07-12T07:36:15;20.00;95.50
6355;DHT22;3210;48.708;9.030;2022-07-12T07:38:44;20.00;99.90
6355;DHT22;3210;48.708;9.030;2022-07-12T07:41:11;20.40;29.90
6355;DHT22;3210;48.708;9.030;2022-07-12T07:43:37;20.50;1.00
6355;DHT22;3210;48.708;9.030;2022-07-12T07:46:04;20.40;1.00
6355;DHT22;3210;48.708;9.030;2022-07-12T07:48:31;20.30;1.00
6355;DHT22;3210;48.708;9.030;2022-07-12T07:50:58;20.20;1.00
6355;DHT22;3210;48.708;9.030;2022-07-12T07:53:25;20.30;1.00
6355;DHT22;3210;48.708;9.030;2022-07-12T07:55:53;20.30;1.00
6355;DHT22;3210;48.708;9.030;2022-07-12T07:58:20;20.70;1.00
6355;DHT22;3210;48.708;9.030;2022-07-12T08:00:49;20.90;1.00
6355;DHT22;3210;48.708;9.030;2022-07-12T08:03:15;21.00;99.90
6355;DHT22;3210;48.708;9.030;2022-07-12T08:05:42;21.10;99.90
6355;DHT22;3210;48.708;9.030;2022-07-12T08:08:09;21.00;68.50
6355;DHT22;3210;48.708;9.030;2022-07-12T08:10:36;20.80;99.90
6355;DHT22;3210;48.708;9.030;2022-07-12T08:13:04;20.70;99.90
6355;DHT22;3210;48.708;9.030;2022-07-12T08:15:31;20.60;99.90
6355;DHT22;3210;48.708;9.030;2022-07-12T08:17:58;20.90;1.00
6355;DHT22;3210;48.708;9.030;2022-07-12T08:20:25;21.30;99.90
6355;DHT22;3210;48.708;9.030;2022-07-12T08:22:52;21.60;1.00
6355;DHT22;3210;48.708;9.030;2022-07-12T08:25:19;21.30;99.90
6355;DHT22;3210;48.708;9.030;2022-07-12T08:27:45;21.40;99.90
6355;DHT22;3210;48.708;9.030;2022-07-12T08:30:14;21.60;1.00
6355;DHT22;3210;48.708;9.030;2022-07-12T08:32:43;22.10;1.00
6355;DHT22;3210;48.708;9.030;2022-07-12T08:35:10;22.60;1.00
6355;DHT22;3210;48.708;9.030;2022-07-12T08:37:37;22.80;99.90
6355;DHT22;3210;48.708;9.030;2022-07-12T08:40:06;22.60;99.90
6355;DHT22;3210;48.708;9.030;2022-07-12T08:42:33;22.90;99.90
6355;DHT22;3210;48.708;9.030;2022-07-12T08:45:00;22.60;99.90
6355;DHT22;3210;48.708;9.030;2022-07-12T08:47:28;22.20;1.00
6355;DHT22;3210;48.708;9.030;2022-07-12T08:50:12;22.10;1.00
6355;DHT22;3210;48.708;9.030;2022-07-12T08:52:40;21.50;99.90
6355;DHT22;3210;48.708;9.030;2022-07-12T08:55:18;21.20;99.90
6355;DHT22;3210;48.708;9.030;2022-07-12T08:57:45;21.20;1.00
6355;DHT22;3210;48.708;9.030;2022-07-12T09:00:12;21.00;70.70
6355;DHT22;3210;48.708;9.030;2022-07-12T09:02:51;20.90;99.90
6355;DHT22;3210;48.708;9.030;2022-07-12T09:05:20;20.90;99.90
6355;DHT22;3210;48.708;9.030;2022-07-12T09:07:47;21.10;99.90
6355;DHT22;3210;48.708;9.030;2022-07-12T09:10:15;21.30;99.90
6355;DHT22;3210;48.708;9.030;2022-07-12T09:12:42;21.70;1.00
6355;DHT22;3210;48.708;9.030;2022-07-12T09:15:11;22.30;99.90
6355;DHT22;3210;48.708;9.030;2022-07-12T09:17:38;22.50;99.90
6355;DHT22;3210;48.708;9.030;2022-07-12T09:20:09;22.70;99.90
6355;DHT22;3210;48.708;9.030;2022-07-12T09:22:36;23.00;1.00
6355;DHT22;3210;48.708;9.030;2022-07-12T09:25:08;22.30;1.00
6355;DHT22;3210;48.708;9.030;2022-07-12T09:27:38;22.10;1.00
6355;DHT22;3210;48.708;9.030;2022-07-12T09:30:10;21.80;1.00
6355;DHT22;3210;48.708;9.030;2022-07-12T09:32:49;22.00;1.00
6355;DHT22;3210;48.708;9.030;2022-07-12T09:35:35;22.20;99.90
6355;DHT22;3210;48.708;9.030;2022-07-12T09:38:19;22.50;99.90
6355;DHT22;3210;48.708;9.030;2022-07-12T09:40:46;22.50;99.90
6355;DHT22;3210;48.708;9.030;2022-07-12T09:43:14;22.20;99.90
6355;DHT22;3210;48.708;9.030;2022-07-12T09:45:41;22.00;1.00
6355;DHT22;3210;48.708;9.030;2022-07-12T09:48:09;22.30;1.00
6355;DHT22;3210;48.708;9.030;2022-07-12T09:50:38;22.60;99.90
6355;DHT22;3210;48.708;9.030;2022-07-12T09:53:05;22.80;1.00
6355;DHT22;3210;48.708;9.030;2022-07-12T09:55:37;23.10;1.00
6355;DHT22;3210;48.708;9.030;2022-07-12T09:58:04;23.40;1.00
6355;DHT22;3210;48.708;9.030;2022-07-12T10:00:34;22.60;1.00
6355;DHT22;3210;48.708;9.030;2022-07-12T10:03:03;22.50;1.00
6355;DHT22;3210;48.708;9.030;2022-07-12T10:05:30;22.80;1.00
6355;DHT22;3210;48.708;9.030;2022-07-12T10:08:02;22.80;1.00
6355;DHT22;3210;48.708;9.030;2022-07-12T10:10:29;22.50;99.00
6355;DHT22;3210;48.708;9.030;2022-07-12T10:12:56;22.30;36.10
6355;DHT22;3210;48.708;9.030;2022-07-12T10:15:25;22.60;1.00
6355;DHT22;3210;48.708;9.030;2022-07-12T10:17:54;23.30;1.00
6355;DHT22;3210;48.708;9.030;2022-07-12T10:20:23;23.90;1.00
6355;DHT22;3210;48.708;9.030;2022-07-12T10:22:52;24.50;1.00
6355;DHT22;3210;48.708;9.030;2022-07-12T10:25:38;24.80;99.90
6355;DHT22;3210;48.708;9.030;2022-07-12T10:28:05;24.80;99.90
6355;DHT22;3210;48.708;9.030;2022-07-12T10:30:41;24.30;1.00
6355;DHT22;3210;48.708;9.030;2022-07-12T10:33:15;24.10;55.90
6355;DHT22;3210;48.708;9.030;2022-07-12T10:35:57;23.60;99.90
6355;DHT22;3210;48.708;9.030;2022-07-12T10:38:24;23.60;99.90
6355;DHT22;3210;48.708;9.030;2022-07-12T10:40:53;23.40;93.00
6355;DHT22;3210;48.708;9.030;2022-07-12T10:43:22;23.10;99.90
6355;DHT22;3210;48.708;9.030;2022-07-12T10:46:21;23.40;99.90
6355;DHT22;3210;48.708;9.030;2022-07-12T10:48:50;23.50;53.80
6355;DHT22;3210;48.708;9.030;2022-07-12T10:51:17;22.80;99.90
6355;DHT22;3210;48.708;9.030;2022-07-12T10:53:46;23.00;1.00
6355;DHT22;3210;48.708;9.030;2022-07-12T10:56:23;22.80;99.90
6355;DHT22;3210;48.708;9.030;2022-07-12T10:58:53;23.20;99.90
6355;DHT22;3210;48.708;9.030;2022-07-12T11:01:22;23.60;24.50
6355;DHT22;3210;48.708;9.030;2022-07-12T11:03:50;23.80;1.00
6355;DHT22;3210;48.708;9.030;2022-07-12T11:06:19;23.90;99.90
6355;DHT22;3210;48.708;9.030;2022-07-12T11:08:47;24.50;99.90
6355;DHT22;3210;48.708;9.030;2022-07-12T11:11:14;24.50;99.90
6355;DHT22;3210;48.708;9.030;2022-07-12T11:13:42;23.90;6.70
6355;DHT22;3210;48.708;9.030;2022-07-12T11:16:09;24.10;99.90
6355;DHT22;3210;48.708;9.030;2022-07-12T11:18:37;24.70;1.00
6355;DHT22;3210;48.708;9.030;2022-07-12T11:21:04;25.00;99.90
6355;DHT22;3210;48.708;9.030;2022-07-12T11:23:32;24.90;8.80
6355;DHT22;3210;48.708;9.030;2022-07-12T11:26:00;24.40;99.90
6355;DHT22;3210;48.708;9.030;2022-07-12T11:28:28;24.50;99.90
6355;DHT22;3210;48.708;9.030;2022-07-12T11:31:02;24.80;60.50
6355;DHT22;3210;48.708;9.030;2022-07-12T11:33:30;25.00;1.00
6355;DHT22;3210;48.708;9.030;2022-07-12T11:35:59;25.20;1.00
6355;DHT22;3210;48.708;9.030;2022-07-12T11:38:27;25.30;1.00
6355;DHT22;3210;48.708;9.030;2022-07-12T11:40:57;24.80;1.00
6355;DHT22;3210;48.708;9.030;2022-07-12T11:43:25;24.90;99.90
6355;DHT22;3210;48.708;9.030;2022-07-12T11:45:53;25.20;1.00
6355;DHT22;3210;48.708;9.030;2022-07-12T11:48:22;25.20;99.90
6355;DHT22;3210;48.708;9.030;2022-07-12T11:50:51;25.30;99.90
6355;DHT22;3210;48.708;9.030;2022-07-12T11:53:19;25.40;99.90
6355;DHT22;3210;48.708;9.030;2022-07-12T11:55:48;25.30;99.90
6355;DHT22;3210;48.708;9.030;2022-07-12T11:58:16;25.20;99.90
6355;DHT22;3210;48.708;9.030;2022-07-12T12:00:43;25.40;99.90
6355;DHT22;3210;48.708;9.030;2022-07-12T12:03:10;25.20;99.90
6355;DHT22;3210;48.708;9.030;2022-07-12T12:05:39;25.10;1.00
6355;DHT22;3210;48.708;9.030;2022-07-12T12:08:07;25.20;1.00
6355;DHT22;3210;48.708;9.030;2022-07-12T12:10:35;25.60;99.90
6355;DHT22;3210;48.708;9.030;2022-07-12T12:13:03;25.60;99.90
6355;DHT22;3210;48.708;9.030;2022-07-12T12:15:31;26.00;99.90
6355;DHT22;3210;48.708;9.030;2022-07-12T12:17:59;25.60;99.90
6355;DHT22;3210;48.708;9.030;2022-07-12T12:20:29;25.70;70.10
6355;DHT22;3210;48.708;9.030;2022-07-12T12:22:59;25.60;99.90
6355;DHT22;3210;48.708;9.030;2022-07-12T12:25:27;25.60;1.00
6355;DHT22;3210;48.708;9.030;2022-07-12T12:27:56;25.80;1.00
6355;DHT22;3210;48.708;9.030;2022-07-12T12:30:23;25.70;1.00
6355;DHT22;3210;48.708;9.030;2022-07-12T12:32:52;25.60;1.00
6355;DHT22;3210;48.708;9.030;2022-07-12T12:35:22;26.00;99.90
6355;DHT22;3210;48.708;9.030;2022-07-12T12:37:54;25.70;99.90
6355;DHT22;3210;48.708;9.030;2022-07-12T12:40:25;25.10;99.90
6355;DHT22;3210;48.708;9.030;2022-07-12T12:42:53;25.30;1.00
6355;DHT22;3210;48.708;9.030;2022-07-12T12:45:31;25.40;1.00
6355;DHT22;3210;48.708;9.030;2022-07-12T12:48:00;25.40;99.90
6355;DHT22;3210;48.708;9.030;2022-07-12T12:50:45;25.40;99.90
6355;DHT22;3210;48.708;9.030;2022-07-12T12:53:14;25.80;1.00
6355;DHT22;3210;48.708;9.030;2022-07-12T12:55:43;26.20;99.90
6355;DHT22;3210;48.708;9.030;2022-07-12T12:58:11;25.80;1.00
6355;DHT22;3210;48.708;9.030;2022-07-12T13:00:39;25.70;99.90
6355;DHT22;3210;48.708;9.030;2022-07-12T13:03:06;25.70;99.90
6355;DHT22;3210;48.708;9.030;2022-07-12T13:05:34;26.30;1.00
6355;DHT22;3210;48.708;9.030;2022-07-12T13:08:01;26.00;99.90
6355;DHT22;3210;48.708;9.030;2022-07-12T13:10:28;25.60;99.90
6355;DHT22;3210;48.708;9.030;2022-07-12T13:12:57;26.20;1.00
6355;DHT22;3210;48.708;9.030;2022-07-12T13:15:24;26.80;1.00
6355;DHT22;3210;48.708;9.030;2022-07-12T13:17:52;27.00;1.00
6355;DHT22;3210;48.708;9.030;2022-07-12T13:20:19;26.70;99.90
6355;DHT22;3210;48.708;9.030;2022-07-12T13:22:46;26.50;99.90
6355;DHT22;3210;48.708;9.030;2022-07-12T13:25:14;26.40;99.90
6355;DHT22;3210;48.708;9.030;2022-07-12T13:27:41;26.30;99.90
6355;DHT22;3210;48.708;9.030;2022-07-12T13:30:11;26.10;1.00
6355;DHT22;3210;48.708;9.030;2022-07-12T13:32:39;26.10;99.90
6355;DHT22;3210;48.708;9.030;2022-07-12T13:35:08;25.90;99.90
6355;DHT22;3210;48.708;9.030;2022-07-12T13:37:36;26.20;99.90
6355;DHT22;3210;48.708;9.030;2022-07-12T13:40:05;26.50;99.90
6355;DHT22;3210;48.708;9.030;2022-07-12T13:42:41;26.70;99.90
6355;DHT22;3210;48.708;9.030;2022-07-12T13:45:16;26.70;99.90
6355;DHT22;3210;48.708;9.030;2022-07-12T13:47:46;26.40;99.90
6355;DHT22;3210;48.708;9.030;2022-07-12T13:50:16;26.20;99.90
6355;DHT22;3210;48.708;9.030;2022-07-12T13:52:44;26.10;1.00
6355;DHT22;3210;48.708;9.030;2022-07-12T13:55:13;26.10;99.90
6355;DHT22;3210;48.708;9.030;2022-07-12T13:57:40;26.10;1.00
6355;DHT22;3210;48.708;9.030;2022-07-12T14:00:10;26.20;1.00
6355;DHT22;3210;48.708;9.030;2022-07-12T14:02:38;26.50;1.00
6355;DHT22;3210;48.708;9.030;2022-07-12T14:05:07;26.80;1.00
6355;DHT22;3210;48.708;9.030;2022-07-12T14:07:36;26.90;99.90
6355;DHT22;3210;48.708;9.030;2022-07-12T14:10:05;27.10;99.90
6355;DHT22;3210;48.708;9.030;2022-07-12T14:12:32;26.90;99.90
6355;DHT22;3210;48.708;9.030;2022-07-12T14:14:59;26.80;99.90
6355;DHT22;3210;48.708;9.030;2022-07-12T14:17:47;26.80;99.90
6355;DHT22;3210;48.708;9.030;2022-07-12T14:20:16;26.80;99.90
6355;DHT22;3210;48.708;9.030;2022-07-12T14:22:43;26.50;1.00
6355;DHT22;3210;48.708;9.030;2022-07-12T14:25:12;26.50;99.90
6355;DHT22;3210;48.708;9.030;2022-07-12T14:27:39;26.80;99.90
6355;DHT22;3210;48.708;9.030;2022-07-12T14:30:08;27.00;99.90
6355;DHT22;3210;48.708;9.030;2022-07-12T14:32:35;26.80;99.90
6355;DHT22;3210;48.708;9.030;2022-07-12T14:35:04;26.50;99.90
6355;DHT22;3210;48.708;9.030;2022-07-12T14:37:32;26.70;99.90
6355;DHT22;3210;48.708;9.030;2022-07-12T14:39:58;27.10;16.30
6355;DHT22;3210;48.708;9.030;2022-07-12T14:42:25;27.10;99.90
6355;DHT22;3210;48.708;9.030;2022-07-12T14:44:52;26.40;1.00
6355;DHT22;3210;48.708;9.030;2022-07-12T14:47:20;26.40;99.90
6355;DHT22;3210;48.708;9.030;2022-07-12T14:49:46;26.60;1.00
6355;DHT22;3210;48.708;9.030;2022-07-12T14:52:15;26.70;99.90
6355;DHT22;3210;48.708;9.030;2022-07-12T14:54:42;26.60;15.40
6355;DHT22;3210;48.708;9.030;2022-07-12T14:57:10;26.60;83.50
6355;DHT22;3210;48.708;9.030;2022-07-12T14:59:36;26.70;60.60
6355;DHT22;3210;48.708;9.030;2022-07-12T15:02:03;26.80;99.90
6355;DHT22;3210;48.708;9.030;2022-07-12T15:04:30;27.00;13.00
6355;DHT22;3210;48.708;9.030;2022-07-12T15:06:57;27.20;1.00
6355;DHT22;3210;48.708;9.030;2022-07-12T15:09:25;27.80;99.90
6355;DHT22;3210;48.708;9.030;2022-07-12T15:11:52;27.90;1.00
6355;DHT22;3210;48.708;9.030;2022-07-12T15:14:19;27.20;1.00
6355;DHT22;3210;48.708;9.030;2022-07-12T15:16:45;27.10;99.90
6355;DHT22;3210;48.708;9.030;2022-07-12T15:19:13;27.00;99.90
6355;DHT22;3210;48.708;9.030;2022-07-12T15:21:40;27.10;99.90
6355;DHT22;3210;48.708;9.030;2022-07-12T15:24:07;26.90;99.90
6355;DHT22;3210;48.708;9.030;2022-07-12T15:26:36;26.70;1.00
6355;DHT22;3210;48.708;9.030;2022-07-12T15:29:03;26.70;1.00
6355;DHT22;3210;48.708;9.030;2022-07-12T15:31:31;26.50;1.00
6355;DHT22;3210;48.708;9.030;2022-07-12T15:33:58;26.40;99.90
6355;DHT22;3210;48.708;9.030;2022-07-12T15:36:28;26.50;1.00
6355;DHT22;3210;48.708;9.030;2022-07-12T15:38:55;26.90;1.00
6355;DHT22;3210;48.708;9.030;2022-07-12T15:41:21;26.80;99.90
6355;DHT22;3210;48.708;9.030;2022-07-12T15:43:50;26.80;1.00
6355;DHT22;3210;48.708;9.030;2022-07-12T15:46:17;26.90;1.00
6355;DHT22;3210;48.708;9.030;2022-07-12T15:48:44;26.80;99.90
6355;DHT22;3210;48.708;9.030;2022-07-12T15:51:11;27.10;1.00
6355;DHT22;3210;48.708;9.030;2022-07-12T15:53:38;27.30;1.00
6355;DHT22;3210;48.708;9.030;2022-07-12T15:56:06;27.40;1.00
6355;DHT22;3210;48.708;9.030;2022-07-12T15:58:35;27.50;1.00
6355;DHT22;3210;48.708;9.030;2022-07-12T16:01:03;27.50;1.00
6355;DHT22;3210;48.708;9.030;2022-07-12T16:03:30;27.30;99.90
6355;DHT22;3210;48.708;9.030;2022-07-12T16:05:58;27.20;99.90
6355;DHT22;3210;48.708;9.030;2022-07-12T16:08:27;27.30;99.90
6355;DHT22;3210;48.708;9.030;2022-07-12T16:10:55;26.90;99.90